sensor_id;sensor_type;location;lat;lon;timestamp;pressure;altitude;pressure_sealevel;temperature;humidity
10474;BME280;5284;50.446;7.904;2023-02-21T00:02:05;98870.81;;;6.81;100.00
10474;BME280;5284;50.446;7.904;2023-02-21T00:07:28;98871.84;;;6.79;100.00
10474;BME280;5284;50.446;7.904;2023-02-21T00:12:49;98859.72;;;6.75;100.00
10474;BME280;5284;50.446;7.904;2023-02-21T00:18:10;98853.69;;;6.73;100.00
10474;BME280;5284;50.446;7.904;2023-02-21T00:23:32;98846.06;;;6.68;100.00
10474;BME280;5284;50.446;7.904;2023-02-21T00:28:54;98839.81;;;6.55;100.00
10474;BME280;5284;50.446;7.904;2023-02-21T00:34:14;98833.50;;;6.44;100.00
10474;BME280;5284;50.446;7.904;2023-02-21T00:39:35;98862.69;;;6.30;100.00
10474;BME280;5284;50.446;7.904;2023-02-21T00:44:56;98860.31;;;6.25;100.00
10474;BME280;5284;50.446;7.904;2023-02-21T00:50:17;98863.91;;;6.24;100.00
10474;BME280;5284;50.446;7.904;2023-02-21T00:55:37;98857.66;;;6.25;100.00
10474;BME280;5284;50.446;7.904;2023-02-21T01:00:59;98873.09;;;6.19;100.00
10474;BME280;5284;50.446;7.904;2023-02-21T01:06:20;98864.84;;;6.23;100.00
10474;BME280;5284;50.446;7.904;2023-02-21T01:11:41;98863.63;;;6.29;100.00
10474;BME280;5284;50.446;7.904;2023-02-21T01:17:03;98863.34;;;6.33;100.00
10474;BME280;5284;50.446;7.904;2023-02-21T01:22:23;98862.28;;;6.36;100.00
10474;BME280;5284;50.446;7.904;2023-02-21T01:27:43;98866.63;;;6.37;100.00
10474;BME280;5284;50.446;7.904;2023-02-21T01:33:05;98867.38;;;6.39;100.00
10474;BME280;5284;50.446;7.904;2023-02-21T01:38:25;98873.34;;;6.42;100.00
10474;BME280;5284;50.446;7.904;2023-02-21T01:43:57;98858.22;;;6.44;100.00
10474;BME280;5284;50.446;7.904;2023-02-21T01:49:19;98859.16;;;6.43;100.00
10474;BME280;5284;50.446;7.904;2023-02-21T01:54:42;98849.22;;;6.47;100.00
10474;BME280;5284;50.446;7.904;2023-02-21T02:00:07;98849.78;;;6.52;100.00
10474;BME280;5284;50.446;7.904;2023-02-21T02:05:30;98849.66;;;6.53;100.00
10474;BME280;5284;50.446;7.904;2023-02-21T02:11:01;98837.38;;;6.52;100.00
10474;BME280;5284;50.446;7.904;2023-02-21T02:16:28;98833.97;;;6.50;100.00
10474;BME280;5284;50.446;7.904;2023-02-21T02:22:06;98838.25;;;6.53;100.00
10474;BME280;5284;50.446;7.904;2023-02-21T02:27:36;98838.13;;;6.54;100.00
10474;BME280;5284;50.446;7.904;2023-02-21T02:33:07;98835.28;;;6.57;100.00
10474;BME280;5284;50.446;7.904;2023-02-21T02:38:22;98841.72;;;6.53;100.00
10474;BME280;5284;50.446;7.904;2023-02-21T02:43:31;98833.78;;;6.53;100.00
10474;BME280;5284;50.446;7.904;2023-02-21T02:48:36;98838.88;;;6.56;100.00
10474;BME280;5284;50.446;7.904;2023-02-21T02:53:42;98827.44;;;6.56;100.00
10474;BME280;5284;50.446;7.904;2023-02-21T02:58:48;98819.50;;;6.56;100.00
10474;BME280;5284;50.446;7.904;2023-02-21T03:04:05;98810.06;;;6.52;100.00
10474;BME280;5284;50.446;7.904;2023-02-21T03:09:15;98810.41;;;6.46;100.00
10474;BME280;5284;50.446;7.904;2023-02-21T03:14:24;98800.69;;;6.46;100.00
10474;BME280;5284;50.446;7.904;2023-02-21T03:19:30;98810.63;;;6.43;100.00
10474;BME280;5284;50.446;7.904;2023-02-21T03:24:37;98801.69;;;6.31;100.00
10474;BME280;5284;50.446;7.904;2023-02-21T03:29:42;98796.47;;;6.30;100.00
10474;BME280;5284;50.446;7.904;2023-02-21T03:34:45;98804.41;;;6.30;100.00
10474;BME280;5284;50.446;7.904;2023-02-21T03:39:53;98804.50;;;6.28;100.00
10474;BME280;5284;50.446;7.904;2023-02-21T03:44:56;98808.09;;;6.27;100.00
10474;BME280;5284;50.446;7.904;2023-02-21T03:49:59;98807.34;;;6.25;100.00
10474;BME280;5284;50.446;7.904;2023-02-21T03:55:04;98804.41;;;6.30;100.00
10474;BME280;5284;50.446;7.904;2023-02-21T04:00:08;98800.06;;;6.29;100.00
10474;BME280;5284;50.446;7.904;2023-02-21T04:05:17;98813.88;;;6.34;100.00
10474;BME280;5284;50.446;7.904;2023-02-21T04:10:24;98808.38;;;6.37;100.00
10474;BME280;5284;50.446;7.904;2023-02-21T04:15:27;98809.13;;;6.39;100.00
10474;BME280;5284;50.446;7.904;2023-02-21T04:20:31;98800.44;;;6.37;100.00
10474;BME280;5284;50.446;7.904;2023-02-21T04:25:37;98805.63;;;6.38;100.00
10474;BME280;5284;50.446;7.904;2023-02-21T04:30:47;98806.59;;;6.37;100.00
10474;BME280;5284;50.446;7.904;2023-02-21T04:35:50;98800.53;;;6.35;100.00
10474;BME280;5284;50.446;7.904;2023-02-21T04:40:59;98804.13;;;6.34;100.00
10474;BME280;5284;50.446;7.904;2023-02-21T04:46:03;98793.34;;;6.37;100.00
10474;BME280;5284;50.446;7.904;2023-02-21T04:51:06;98794.94;;;6.40;100.00
10474;BME280;5284;50.446;7.904;2023-02-21T04:56:19;98797.50;;;6.41;100.00
10474;BME280;5284;50.446;7.904;2023-02-21T05:01:26;98802.78;;;6.41;100.00
10474;BME280;5284;50.446;7.904;2023-02-21T05:06:31;98799.94;;;6.44;100.00
10474;BME280;5284;50.446;7.904;2023-02-21T05:11:35;98799.81;;;6.46;100.00
10474;BME280;5284;50.446;7.904;2023-02-21T05:16:38;98803.34;;;6.46;100.00
10474;BME280;5284;50.446;7.904;2023-02-21T05:21:42;98795.47;;;6.45;100.00
10474;BME280;5284;50.446;7.904;2023-02-21T05:26:46;98794.44;;;6.47;100.00
10474;BME280;5284;50.446;7.904;2023-02-21T05:31:49;98790.38;;;6.42;100.00
10474;BME280;5284;50.446;7.904;2023-02-21T05:36:51;98784.06;;;6.44;100.00
10474;BME280;5284;50.446;7.904;2023-02-21T05:41:56;98790.09;;;6.46;100.00
10474;BME280;5284;50.446;7.904;2023-02-21T05:46:58;98799.94;;;6.44;100.00
10474;BME280;5284;50.446;7.904;2023-02-21T05:52:02;98793.69;;;6.45;100.00
10474;BME280;5284;50.446;7.904;2023-02-21T05:57:08;98792.75;;;6.46;100.00
10474;BME280;5284;50.446;7.904;2023-02-21T06:02:10;98800.97;;;6.42;100.00
10474;BME280;5284;50.446;7.904;2023-02-21T06:07:13;98792.28;;;6.40;100.00
10474;BME280;5284;50.446;7.904;2023-02-21T06:12:17;98794.78;;;6.29;100.00
10474;BME280;5284;50.446;7.904;2023-02-21T06:17:20;98798.22;;;6.17;100.00
10474;BME280;5284;50.446;7.904;2023-02-21T06:22:23;98795.69;;;6.02;100.00
10474;BME280;5284;50.446;7.904;2023-02-21T06:27:27;98797.94;;;5.94;100.00
10474;BME280;5284;50.446;7.904;2023-02-21T06:32:30;98791.31;;;5.87;100.00
10474;BME280;5284;50.446;7.904;2023-02-21T06:37:33;98791.13;;;5.76;100.00
10474;BME280;5284;50.446;7.904;2023-02-21T06:42:38;98795.28;;;5.66;100.00
10474;BME280;5284;50.446;7.904;2023-02-21T06:47:41;98795.06;;;5.41;100.00
10474;BME280;5284;50.446;7.904;2023-02-21T06:52:43;98786.00;;;5.59;100.00
10474;BME280;5284;50.446;7.904;2023-02-21T06:57:48;98789.25;;;5.64;100.00
10474;BME280;5284;50.446;7.904;2023-02-21T07:02:51;98795.75;;;5.58;100.00
10474;BME280;5284;50.446;7.904;2023-02-21T07:07:54;98794.91;;;5.72;100.00
10474;BME280;5284;50.446;7.904;2023-02-21T07:12:58;98795.13;;;5.83;100.00
10474;BME280;5284;50.446;7.904;2023-02-21T07:18:01;98798.31;;;5.74;100.00
10474;BME280;5284;50.446;7.904;2023-02-21T07:23:04;98802.09;;;5.70;100.00
10474;BME280;5284;50.446;7.904;2023-02-21T07:28:09;98811.41;;;5.75;100.00
10474;BME280;5284;50.446;7.904;2023-02-21T07:33:12;98795.38;;;5.78;100.00
10474;BME280;5284;50.446;7.904;2023-02-21T07:38:19;98804.16;;;5.93;100.00
10474;BME280;5284;50.446;7.904;2023-02-21T07:43:25;98803.69;;;6.00;100.00
10474;BME280;5284;50.446;7.904;2023-02-21T07:48:30;98808.81;;;6.17;100.00
10474;BME280;5284;50.446;7.904;2023-02-21T07:53:33;98807.63;;;6.35;100.00
10474;BME280;5284;50.446;7.904;2023-02-21T07:58:37;98809.72;;;6.56;100.00
10474;BME280;5284;50.446;7.904;2023-02-21T08:03:40;98803.13;;;6.76;100.00
10474;BME280;5284;50.446;7.904;2023-02-21T08:08:43;98803.00;;;7.04;100.00
10474;BME280;5284;50.446;7.904;2023-02-21T08:13:49;98804.13;;;7.39;100.00
10474;BME280;5284;50.446;7.904;2023-02-21T08:18:51;98795.69;;;7.71;100.00
10474;BME280;5284;50.446;7.904;2023-02-21T08:23:54;98796.50;;;7.84;100.00
10474;BME280;5284;50.446;7.904;2023-02-21T08:28:58;98792.56;;;8.02;100.00
10474;BME280;5284;50.446;7.904;2023-02-21T08:34:01;98788.41;;;8.10;100.00
10474;BME280;5284;50.446;7.904;2023-02-21T08:39:05;98800.94;;;8.33;100.00
10474;BME280;5284;50.446;7.904;2023-02-21T08:44:11;98794.44;;;8.61;100.00
10474;BME280;5284;50.446;7.904;2023-02-21T08:49:14;98792.31;;;8.66;100.00
10474;BME280;5284;50.446;7.904;2023-02-21T08:54:17;98788.56;;;8.92;100.00
10474;BME280;5284;50.446;7.904;2023-02-21T08:59:22;98788.97;;;9.32;100.00
10474;BME280;5284;50.446;7.904;2023-02-21T09:04:25;98792.59;;;9.31;100.00
10474;BME280;5284;50.446;7.904;2023-02-21T09:09:28;98781.72;;;9.91;100.00
10474;BME280;5284;50.446;7.904;2023-02-21T09:14:33;98786.81;;;10.05;100.00
10474;BME280;5284;50.446;7.904;2023-02-21T09:19:36;98777.13;;;10.04;100.00
10474;BME280;5284;50.446;7.904;2023-02-21T09:24:40;98777.72;;;10.18;100.00
10474;BME280;5284;50.446;7.904;2023-02-21T09:29:44;98782.09;;;10.19;100.00
10474;BME280;5284;50.446;7.904;2023-02-21T09:34:48;98770.47;;;10.09;100.00
10474;BME280;5284;50.446;7.904;2023-02-21T09:39:53;98769.75;;;10.07;100.00
10474;BME280;5284;50.446;7.904;2023-02-21T09:44:59;98770.34;;;10.22;100.00
10474;BME280;5284;50.446;7.904;2023-02-21T09:50:10;98769.38;;;10.12;100.00
10474;BME280;5284;50.446;7.904;2023-02-21T09:55:28;98764.38;;;9.96;100.00
10474;BME280;5284;50.446;7.904;2023-02-21T10:00:35;98759.19;;;10.28;100.00
10474;BME280;5284;50.446;7.904;2023-02-21T10:05:43;98764.16;;;10.21;100.00
10474;BME280;5284;50.446;7.904;2023-02-21T10:10:48;98765.19;;;10.52;100.00
10474;BME280;5284;50.446;7.904;2023-02-21T10:15:59;98764.69;;;10.68;100.00
10474;BME280;5284;50.446;7.904;2023-02-21T10:21:11;98778.25;;;11.08;100.00
10474;BME280;5284;50.446;7.904;2023-02-21T10:26:19;98775.38;;;11.72;100.00
10474;BME280;5284;50.446;7.904;2023-02-21T10:31:31;98772.78;;;12.21;100.00
10474;BME280;5284;50.446;7.904;2023-02-21T10:36:35;98777.00;;;12.53;100.00
10474;BME280;5284;50.446;7.904;2023-02-21T10:41:40;98770.06;;;12.51;100.00
10474;BME280;5284;50.446;7.904;2023-02-21T10:46:51;98774.19;;;12.64;100.00
10474;BME280;5284;50.446;7.904;2023-02-21T10:52:15;98771.28;;;12.86;100.00
10474;BME280;5284;50.446;7.904;2023-02-21T10:57:18;98762.19;;;13.17;98.79
10474;BME280;5284;50.446;7.904;2023-02-21T11:02:31;98753.63;;;13.78;97.30
10474;BME280;5284;50.446;7.904;2023-02-21T11:07:36;98743.03;;;14.32;93.71
10474;BME280;5284;50.446;7.904;2023-02-21T11:12:39;98730.06;;;14.28;91.78
10474;BME280;5284;50.446;7.904;2023-02-21T11:17:44;98726.19;;;14.57;90.70
10474;BME280;5284;50.446;7.904;2023-02-21T11:22:49;98712.28;;;14.71;89.65
10474;BME280;5284;50.446;7.904;2023-02-21T11:28:01;98717.72;;;14.97;86.44
10474;BME280;5284;50.446;7.904;2023-02-21T11:33:07;98704.91;;;15.08;86.31
10474;BME280;5284;50.446;7.904;2023-02-21T11:38:31;98704.41;;;15.47;84.54
10474;BME280;5284;50.446;7.904;2023-02-21T11:43:44;98695.91;;;16.03;82.42
10474;BME280;5284;50.446;7.904;2023-02-21T11:48:57;98696.13;;;16.51;81.78
10474;BME280;5284;50.446;7.904;2023-02-21T11:54:03;98688.81;;;17.24;83.02
10474;BME280;5284;50.446;7.904;2023-02-21T11:59:15;98686.47;;;17.29;76.71
10474;BME280;5284;50.446;7.904;2023-02-21T12:04:36;98673.19;;;17.36;71.79
10474;BME280;5284;50.446;7.904;2023-02-21T12:09:46;98656.47;;;17.72;73.25
10474;BME280;5284;50.446;7.904;2023-02-21T12:15:00;98653.97;;;18.09;68.70
10474;BME280;5284;50.446;7.904;2023-02-21T12:20:19;98639.00;;;18.45;69.18
10474;BME280;5284;50.446;7.904;2023-02-21T12:25:31;98631.06;;;18.74;66.09
10474;BME280;5284;50.446;7.904;2023-02-21T12:30:49;98632.53;;;18.99;63.25
10474;BME280;5284;50.446;7.904;2023-02-21T12:36:11;98619.50;;;19.76;59.26
10474;BME280;5284;50.446;7.904;2023-02-21T12:41:33;98615.22;;;19.67;61.52
10474;BME280;5284;50.446;7.904;2023-02-21T12:46:42;98606.34;;;19.88;61.12
10474;BME280;5284;50.446;7.904;2023-02-21T12:51:52;98604.59;;;20.59;61.23
10474;BME280;5284;50.446;7.904;2023-02-21T12:57:02;98592.09;;;20.08;60.36
10474;BME280;5284;50.446;7.904;2023-02-21T13:02:11;98595.03;;;19.84;60.64
10474;BME280;5284;50.446;7.904;2023-02-21T13:07:25;98584.84;;;18.83;64.30
10474;BME280;5284;50.446;7.904;2023-02-21T13:12:38;98580.31;;;18.31;66.67
10474;BME280;5284;50.446;7.904;2023-02-21T13:17:49;98569.66;;;18.82;65.03
10474;BME280;5284;50.446;7.904;2023-02-21T13:23:14;98560.50;;;17.70;70.61
10474;BME280;5284;50.446;7.904;2023-02-21T13:28:18;98557.91;;;17.38;73.36
10474;BME280;5284;50.446;7.904;2023-02-21T13:33:27;98541.09;;;16.48;75.75
10474;BME280;5284;50.446;7.904;2023-02-21T13:38:33;98538.03;;;16.27;78.53
10474;BME280;5284;50.446;7.904;2023-02-21T13:43:43;98531.41;;;15.98;82.01
10474;BME280;5284;50.446;7.904;2023-02-21T13:54:34;98529.03;;;15.87;84.80
10474;BME280;5284;50.446;7.904;2023-02-21T13:59:37;98514.41;;;15.89;83.72
10474;BME280;5284;50.446;7.904;2023-02-21T14:05:00;98514.34;;;15.73;83.54
10474;BME280;5284;50.446;7.904;2023-02-21T14:10:16;98507.03;;;15.91;84.01
10474;BME280;5284;50.446;7.904;2023-02-21T14:15:21;98502.59;;;15.74;83.78
10474;BME280;5284;50.446;7.904;2023-02-21T14:20:25;98504.44;;;15.66;83.24
10474;BME280;5284;50.446;7.904;2023-02-21T14:25:32;98500.44;;;15.44;85.92
10474;BME280;5284;50.446;7.904;2023-02-21T14:30:36;98497.97;;;15.51;85.75
10474;BME280;5284;50.446;7.904;2023-02-21T14:35:45;98483.66;;;15.42;86.17
10474;BME280;5284;50.446;7.904;2023-02-21T14:41:01;98490.03;;;15.41;83.34
10474;BME280;5284;50.446;7.904;2023-02-21T14:46:25;98480.47;;;15.39;83.41
10474;BME280;5284;50.446;7.904;2023-02-21T14:51:54;98478.78;;;15.38;84.97
10474;BME280;5284;50.446;7.904;2023-02-21T14:57:04;98470.94;;;15.27;84.61
10474;BME280;5284;50.446;7.904;2023-02-21T15:02:20;98469.41;;;15.50;86.03
10474;BME280;5284;50.446;7.904;2023-02-21T15:07:31;98462.38;;;15.57;86.11
10474;BME280;5284;50.446;7.904;2023-02-21T15:12:39;98459.34;;;15.52;85.89
10474;BME280;5284;50.446;7.904;2023-02-21T15:17:44;98465.16;;;15.39;84.42
10474;BME280;5284;50.446;7.904;2023-02-21T15:22:56;98457.97;;;15.48;84.76
10474;BME280;5284;50.446;7.904;2023-02-21T15:28:06;98455.94;;;15.42;84.94
10474;BME280;5284;50.446;7.904;2023-02-21T15:33:14;98455.78;;;15.43;85.29
10474;BME280;5284;50.446;7.904;2023-02-21T15:38:22;98453.41;;;15.40;85.73
10474;BME280;5284;50.446;7.904;2023-02-21T15:43:37;98453.59;;;15.39;85.07
10474;BME280;5284;50.446;7.904;2023-02-21T15:48:43;98448.53;;;15.36;85.61
10474;BME280;5284;50.446;7.904;2023-02-21T15:54:07;98437.34;;;15.23;85.08
10474;BME280;5284;50.446;7.904;2023-02-21T15:59:17;98443.81;;;15.05;83.30
10474;BME280;5284;50.446;7.904;2023-02-21T16:04:21;98447.63;;;14.94;83.90
10474;BME280;5284;50.446;7.904;2023-02-21T16:37:08;98434.78;;;13.94;90.85
10474;BME280;5284;50.446;7.904;2023-02-21T16:42:46;98431.09;;;13.61;95.15
10474;BME280;5284;50.446;7.904;2023-02-21T16:48:05;98435.19;;;13.20;98.92
10474;BME280;5284;50.446;7.904;2023-02-21T17:06:37;98435.06;;;12.02;100.00
10474;BME280;5284;50.446;7.904;2023-02-21T17:18:36;98449.69;;;11.60;100.00
10474;BME280;5284;50.446;7.904;2023-02-21T17:24:03;98449.63;;;11.31;100.00
10474;BME280;5284;50.446;7.904;2023-02-21T17:47:43;98456.03;;;10.50;100.00
10474;BME280;5284;50.446;7.904;2023-02-21T17:52:46;98463.25;;;10.39;100.00
10474;BME280;5284;50.446;7.904;2023-02-21T17:57:49;98458.22;;;10.15;100.00
10474;BME280;5284;50.446;7.904;2023-02-21T18:02:54;98464.31;;;9.95;100.00
10474;BME280;5284;50.446;7.904;2023-02-21T18:07:58;98466.34;;;9.82;100.00
10474;BME280;5284;50.446;7.904;2023-02-21T18:13:01;98469.41;;;9.67;100.00
10474;BME280;5284;50.446;7.904;2023-02-21T18:18:05;98466.72;;;9.46;100.00
10474;BME280;5284;50.446;7.904;2023-02-21T18:23:08;98465.66;;;9.16;100.00
10474;BME280;5284;50.446;7.904;2023-02-21T18:28:11;98469.09;;;8.96;100.00
10474;BME280;5284;50.446;7.904;2023-02-21T18:33:16;98463.31;;;8.91;100.00
10474;BME280;5284;50.446;7.904;2023-02-21T18:38:19;98467.88;;;8.67;100.00
10474;BME280;5284;50.446;7.904;2023-02-21T18:43:24;98466.22;;;8.55;100.00
10474;BME280;5284;50.446;7.904;2023-02-21T18:48:28;98462.94;;;8.41;100.00
10474;BME280;5284;50.446;7.904;2023-02-21T18:53:31;98461.81;;;8.32;100.00
10474;BME280;5284;50.446;7.904;2023-02-21T18:58:34;98462.41;;;8.25;100.00
10474;BME280;5284;50.446;7.904;2023-02-21T19:03:39;98467.66;;;8.14;100.00
10474;BME280;5284;50.446;7.904;2023-02-21T19:08:42;98469.66;;;7.88;100.00
10474;BME280;5284;50.446;7.904;2023-02-21T19:13:47;98472.16;;;7.79;100.00
10474;BME280;5284;50.446;7.904;2023-02-21T19:18:54;98464.66;;;7.73;100.00
10474;BME280;5284;50.446;7.904;2023-02-21T19:23:57;98470.72;;;7.52;100.00
10474;BME280;5284;50.446;7.904;2023-02-21T19:29:00;98467.16;;;7.40;100.00
10474;BME280;5284;50.446;7.904;2023-02-21T19:34:05;98469.06;;;7.38;100.00
10474;BME280;5284;50.446;7.904;2023-02-21T19:39:10;98462.66;;;7.17;100.00
10474;BME280;5284;50.446;7.904;2023-02-21T19:44:16;98461.97;;;7.03;100.00
10474;BME280;5284;50.446;7.904;2023-02-21T19:49:20;98470.19;;;6.87;100.00
10474;BME280;5284;50.446;7.904;2023-02-21T19:54:24;98472.94;;;6.86;100.00
10474;BME280;5284;50.446;7.904;2023-02-21T19:59:27;98469.78;;;6.81;100.00
10474;BME280;5284;50.446;7.904;2023-02-21T20:04:33;98475.19;;;6.67;100.00
10474;BME280;5284;50.446;7.904;2023-02-21T20:09:38;98475.34;;;6.53;100.00
10474;BME280;5284;50.446;7.904;2023-02-21T20:14:43;98472.16;;;6.48;100.00
10474;BME280;5284;50.446;7.904;2023-02-21T20:19:51;98466.66;;;6.38;100.00
10474;BME280;5284;50.446;7.904;2023-02-21T20:24:56;98463.25;;;6.24;100.00
10474;BME280;5284;50.446;7.904;2023-02-21T20:30:04;98470.78;;;6.17;100.00
10474;BME280;5284;50.446;7.904;2023-02-21T20:35:10;98464.22;;;6.10;100.00
10474;BME280;5284;50.446;7.904;2023-02-21T20:40:15;98464.31;;;5.97;100.00
10474;BME280;5284;50.446;7.904;2023-02-21T20:45:20;98455.31;;;5.99;100.00
10474;BME280;5284;50.446;7.904;2023-02-21T20:50:27;98456.47;;;5.95;100.00
10474;BME280;5284;50.446;7.904;2023-02-21T20:55:31;98449.94;;;5.74;100.00
10474;BME280;5284;50.446;7.904;2023-02-21T21:00:38;98455.00;;;5.65;100.00
10474;BME280;5284;50.446;7.904;2023-02-21T21:05:44;98451.50;;;5.64;100.00
10474;BME280;5284;50.446;7.904;2023-02-21T21:10:48;98456.47;;;5.56;100.00
10474;BME280;5284;50.446;7.904;2023-02-21T21:15:51;98457.72;;;5.51;100.00
10474;BME280;5284;50.446;7.904;2023-02-21T21:20:56;98457.88;;;5.35;100.00
10474;BME280;5284;50.446;7.904;2023-02-21T21:25:59;98459.44;;;5.25;100.00
10474;BME280;5284;50.446;7.904;2023-02-21T21:31:03;98456.03;;;5.23;100.00
10474;BME280;5284;50.446;7.904;2023-02-21T21:36:08;98456.31;;;5.19;100.00
10474;BME280;5284;50.446;7.904;2023-02-21T21:41:12;98457.00;;;5.08;100.00
10474;BME280;5284;50.446;7.904;2023-02-21T21:46:16;98448.31;;;4.94;100.00
10474;BME280;5284;50.446;7.904;2023-02-21T21:51:26;98448.88;;;4.85;100.00
10474;BME280;5284;50.446;7.904;2023-02-21T21:56:29;98447.78;;;4.75;100.00
10474;BME280;5284;50.446;7.904;2023-02-21T22:01:34;98442.09;;;4.81;100.00
10474;BME280;5284;50.446;7.904;2023-02-21T22:06:39;98436.09;;;4.65;100.00
10474;BME280;5284;50.446;7.904;2023-02-21T22:11:42;98429.78;;;4.53;100.00
10474;BME280;5284;50.446;7.904;2023-02-21T22:16:48;98426.97;;;4.56;100.00
10474;BME280;5284;50.446;7.904;2023-02-21T22:21:53;98437.25;;;4.47;100.00
10474;BME280;5284;50.446;7.904;2023-02-21T22:26:56;98429.16;;;4.36;100.00
10474;BME280;5284;50.446;7.904;2023-02-21T22:31:59;98422.56;;;4.29;100.00
10474;BME280;5284;50.446;7.904;2023-02-21T22:37:03;98416.44;;;4.15;100.00
10474;BME280;5284;50.446;7.904;2023-02-21T22:42:06;98416.69;;;4.24;100.00
10474;BME280;5284;50.446;7.904;2023-02-21T22:47:09;98409.28;;;4.17;100.00
10474;BME280;5284;50.446;7.904;2023-02-21T22:52:13;98405.47;;;4.07;100.00
10474;BME280;5284;50.446;7.904;2023-02-21T22:57:16;98400.78;;;3.98;100.00
10474;BME280;5284;50.446;7.904;2023-02-21T23:02:19;98399.47;;;3.91;100.00
10474;BME280;5284;50.446;7.904;2023-02-21T23:07:24;98399.91;;;3.83;100.00
10474;BME280;5284;50.446;7.904;2023-02-21T23:12:27;98399.34;;;3.78;100.00
10474;BME280;5284;50.446;7.904;2023-02-21T23:17:31;98395.47;;;3.70;100.00
10474;BME280;5284;50.446;7.904;2023-02-21T23:22:35;98387.19;;;3.62;100.00
10474;BME280;5284;50.446;7.904;2023-02-21T23:27:38;98385.69;;;3.58;100.00
10474;BME280;5284;50.446;7.904;2023-02-21T23:32:41;98383.41;;;3.52;100.00
10474;BME280;5284;50.446;7.904;2023-02-21T23:37:46;98380.97;;;3.49;100.00
10474;BME280;5284;50.446;7.904;2023-02-21T23:42:51;98372.38;;;3.45;100.00
10474;BME280;5284;50.446;7.904;2023-02-21T23:47:55;98375.94;;;3.44;100.00
10474;BME280;5284;50.446;7.904;2023-02-21T23:53:00;98373.88;;;3.49;100.00
10474;BME280;5284;50.446;7.904;2023-02-21T23:58:03;98368.59;;;3.35;100.00
